createdAt,value
2023-04-18T00:01:55.280Z,21.23
2023-04-18T00:04:22.210Z,24.23
2023-04-18T00:06:50.072Z,18.92
2023-04-18T00:09:17.012Z,20.65
2023-04-18T00:11:43.897Z,23.10
2023-04-18T00:14:10.847Z,23.63
2023-04-18T00:16:38.931Z,22.38
2023-04-18T00:19:06.290Z,20.73
2023-04-18T00:21:33.260Z,20.50
2023-04-18T00:24:00.081Z,21.95
2023-04-18T00:26:27.793Z,21.38
2023-04-18T00:28:54.610Z,23.65
2023-04-18T00:31:21.526Z,25.75
2023-04-18T00:33:48.406Z,19.42
2023-04-18T00:36:15.696Z,23.25
2023-04-18T00:38:42.495Z,23.30
2023-04-18T00:41:09.358Z,20.67
2023-04-18T00:43:37.378Z,20.75
2023-04-18T00:46:04.276Z,23.48
2023-04-18T00:48:31.075Z,19.38
2023-04-18T00:50:58.247Z,21.15
2023-04-18T00:53:25.247Z,23.35
2023-04-18T00:55:53.182Z,21.75
2023-04-18T00:58:20.391Z,22.95
2023-04-18T01:00:47.636Z,18.00
2023-04-18T01:03:14.871Z,20.65
2023-04-18T01:05:41.822Z,22.77
2023-04-18T01:08:08.704Z,24.45
2023-04-18T01:10:36.477Z,21.13
2023-04-18T01:13:19.599Z,21.20
2023-04-18T01:15:48.592Z,20.02
2023-04-18T01:18:19.380Z,21.35
2023-04-18T01:20:48.679Z,20.67
2023-04-18T01:23:17.140Z,18.98
2023-04-18T01:25:45.119Z,21.33
2023-04-18T01:28:14.410Z,19.25
2023-04-18T01:30:41.440Z,20.90
2023-04-18T01:33:08.330Z,25.00
2023-04-18T01:35:35.214Z,20.08
2023-04-18T01:38:02.125Z,24.95
2023-04-18T01:40:30.274Z,22.63
2023-04-18T01:42:57.260Z,19.85
2023-04-18T01:45:24.223Z,21.27
2023-04-18T01:47:51.121Z,18.02
2023-04-18T01:50:18.012Z,22.50
2023-04-18T01:52:44.842Z,18.02
2023-04-18T01:55:11.788Z,19.85
2023-04-18T01:57:38.601Z,18.95
2023-04-18T02:00:06.553Z,19.50
2023-04-18T02:02:42.126Z,20.27
2023-04-18T02:05:09.608Z,18.20
2023-04-18T02:07:40.144Z,22.52
2023-04-18T02:10:08.077Z,21.02
2023-04-18T02:12:34.843Z,19.35
2023-04-18T02:15:01.661Z,18.25
2023-04-18T02:17:29.010Z,20.15
2023-04-18T02:19:56.064Z,17.55
2023-04-18T02:22:22.846Z,22.08
2023-04-18T02:24:49.680Z,20.50
2023-04-18T02:27:16.508Z,22.05
2023-04-18T02:29:43.291Z,19.33
2023-04-18T02:32:10.093Z,21.58
2023-04-18T02:34:37.265Z,20.45
2023-04-18T02:37:04.810Z,21.77
2023-04-18T02:39:32.588Z,17.55
2023-04-18T02:41:59.492Z,20.00
2023-04-18T02:44:26.359Z,16.60
2023-04-18T02:46:53.173Z,19.65
2023-04-18T02:49:20.255Z,20.98
2023-04-18T02:51:47.408Z,22.10
2023-04-18T02:54:15.429Z,18.98
2023-04-18T02:56:54.472Z,19.35
2023-04-18T02:59:44.467Z,20.85
2023-04-18T03:02:30.506Z,23.13
2023-04-18T03:05:03.459Z,20.95
2023-04-18T03:07:31.165Z,20.45
2023-04-18T03:10:00.157Z,18.52
2023-04-18T03:12:31.590Z,21.25
2023-04-18T03:14:58.473Z,24.48
2023-04-18T03:17:25.481Z,21.13
2023-04-18T03:19:53.009Z,20.50
2023-04-18T03:22:20.605Z,16.73
2023-04-18T03:24:53.751Z,24.20
2023-04-18T03:27:22.674Z,23.02
2023-04-18T03:29:49.467Z,18.65
2023-04-18T03:32:17.527Z,19.10
2023-04-18T03:34:44.517Z,18.80
2023-04-18T03:37:11.849Z,17.58
2023-04-18T03:39:44.368Z,18.13
2023-04-18T03:42:11.292Z,19.25
2023-04-18T03:44:39.197Z,22.38
2023-04-18T03:47:06.597Z,20.08
2023-04-18T03:49:35.765Z,20.85
2023-04-18T03:52:03.665Z,18.15
2023-04-18T03:54:30.459Z,20.38
2023-04-18T03:56:59.536Z,19.13
2023-04-18T03:59:27.878Z,20.80
2023-04-18T04:01:56.170Z,21.08
2023-04-18T04:04:26.483Z,22.63
2023-04-18T04:06:53.420Z,26.40
2023-04-18T04:09:20.297Z,27.15
2023-04-18T04:11:47.199Z,21.77
2023-04-18T04:14:16.274Z,23.20
2023-04-18T04:16:46.126Z,23.73
2023-04-18T04:19:15.903Z,20.23
2023-04-18T04:22:05.527Z,21.38
2023-04-18T04:24:33.889Z,19.35
2023-04-18T04:27:01.532Z,23.70
2023-04-18T04:29:29.330Z,27.40
2023-04-18T04:31:59.482Z,22.25
2023-04-18T04:34:36.891Z,22.40
2023-04-18T04:37:05.965Z,23.67
2023-04-18T04:39:39.139Z,22.05
2023-04-18T04:44:55.172Z,23.40
2023-04-18T04:47:22.566Z,24.30
2023-04-18T04:49:49.437Z,27.35
2023-04-18T04:52:16.282Z,20.38
2023-04-18T04:54:45.154Z,23.33
2023-04-18T04:57:14.171Z,21.00
2023-04-18T04:59:41.252Z,20.40
2023-04-18T05:02:08.155Z,25.33
2023-04-18T05:04:36.372Z,23.33
2023-04-18T05:07:03.789Z,19.30
2023-04-18T05:09:30.616Z,24.08
2023-04-18T05:11:57.411Z,20.63
2023-04-18T05:14:27.902Z,20.55
2023-04-18T05:16:55.863Z,23.23
2023-04-18T05:19:23.184Z,21.95
2023-04-18T05:21:49.948Z,23.77
2023-04-18T05:24:16.950Z,30.17
2023-04-18T05:26:43.971Z,44.58
2023-04-18T05:29:10.819Z,23.08
2023-04-18T05:31:37.591Z,22.38
2023-04-18T05:34:04.413Z,21.13
2023-04-18T05:36:32.005Z,26.15
2023-04-18T05:38:58.822Z,20.95
2023-04-18T05:41:25.715Z,25.00
2023-04-18T05:44:04.297Z,22.05
2023-04-18T05:46:32.976Z,21.38
2023-04-18T05:48:59.862Z,27.75
2023-04-18T05:51:28.757Z,25.60
2023-04-18T05:53:55.668Z,19.65
2023-04-18T05:56:22.497Z,23.13
2023-04-18T05:58:51.495Z,21.38
2023-04-18T06:01:21.654Z,20.90
2023-04-18T06:03:48.694Z,37.83
2023-04-18T06:06:16.067Z,21.30
2023-04-18T06:08:42.889Z,20.27
2023-04-18T06:11:09.719Z,21.20
2023-04-18T06:13:37.520Z,23.55
2023-04-18T06:16:04.504Z,25.13
2023-04-18T06:18:31.793Z,23.40
2023-04-18T06:20:58.738Z,19.10
2023-04-18T06:23:25.544Z,23.52
2023-04-18T06:25:52.375Z,22.10
2023-04-18T06:28:19.230Z,22.38
2023-04-18T06:30:46.053Z,22.67
2023-04-18T06:33:12.829Z,21.20
2023-04-18T06:35:39.734Z,25.30
2023-04-18T06:38:06.559Z,47.88
2023-04-18T06:40:33.358Z,20.92
2023-04-18T06:43:00.140Z,24.00
2023-04-18T06:45:28.267Z,21.27
2023-04-18T06:47:55.138Z,23.02
2023-04-18T06:50:21.994Z,19.55
2023-04-18T06:52:48.763Z,21.15
2023-04-18T06:55:16.959Z,19.42
2023-04-18T06:57:46.389Z,18.20
2023-04-18T07:00:13.732Z,19.27
2023-04-18T07:02:41.330Z,17.63
2023-04-18T07:05:08.637Z,18.13
2023-04-18T07:07:35.564Z,17.92
2023-04-18T07:10:02.490Z,14.75
2023-04-18T07:12:29.303Z,17.13
2023-04-18T07:14:56.056Z,17.45
2023-04-18T07:17:22.938Z,18.08
2023-04-18T07:19:49.813Z,29.88
2023-04-18T07:22:16.617Z,23.23
2023-04-18T07:24:44.285Z,59.22
2023-04-18T07:27:11.040Z,16.60
2023-04-18T07:29:37.816Z,17.08
2023-04-18T07:32:06.187Z,18.48
2023-04-18T07:34:36.354Z,17.30
2023-04-18T07:37:03.585Z,16.10
2023-04-18T07:39:32.072Z,33.80
2023-04-18T07:41:59.105Z,87.32
2023-04-18T07:44:26.038Z,17.45
2023-04-18T07:46:53.654Z,17.17
2023-04-18T07:49:20.452Z,15.60
2023-04-18T07:51:47.301Z,19.52
2023-04-18T07:54:14.060Z,14.98
2023-04-18T07:56:41.257Z,18.73
2023-04-18T07:59:08.229Z,19.55
2023-04-18T08:01:35.091Z,16.75
2023-04-18T08:04:02.330Z,22.45
2023-04-18T08:06:29.459Z,15.52
2023-04-18T08:08:56.572Z,19.38
2023-04-18T08:11:23.418Z,16.00
2023-04-18T08:13:50.467Z,18.35
2023-04-18T08:16:17.583Z,17.50
2023-04-18T08:18:44.566Z,16.50
2023-04-18T08:21:11.496Z,15.63
2023-04-18T08:23:38.498Z,15.18
2023-04-18T08:26:05.537Z,17.08
2023-04-18T08:28:32.571Z,18.30
2023-04-18T08:30:59.364Z,19.10
2023-04-18T08:33:26.660Z,23.10
2023-04-18T08:35:53.464Z,18.88
2023-04-18T08:38:20.359Z,19.60
2023-04-18T08:40:47.488Z,19.63
2023-04-18T08:43:15.424Z,16.45
2023-04-18T08:45:43.335Z,15.18
2023-04-18T08:48:14.483Z,15.52
2023-04-18T08:50:42.115Z,16.38
2023-04-18T08:53:09.672Z,16.88
2023-04-18T08:55:37.323Z,17.83
2023-04-18T08:58:07.225Z,19.20
2023-04-18T09:00:34.330Z,19.02
2023-04-18T09:03:03.138Z,16.30
2023-04-18T09:05:30.189Z,15.85
2023-04-18T09:07:57.077Z,20.17
2023-04-18T09:10:33.177Z,19.52
2023-04-18T09:13:03.564Z,15.65
2023-04-18T09:15:31.054Z,16.83
2023-04-18T09:18:00.451Z,18.30
2023-04-18T09:20:30.964Z,21.10
2023-04-18T09:23:00.932Z,16.13
2023-04-18T09:25:29.573Z,13.10
2023-04-18T09:28:01.256Z,15.30
2023-04-18T09:30:39.607Z,13.35
2023-04-18T09:33:10.242Z,15.45
2023-04-18T09:35:38.234Z,17.50
2023-04-18T09:38:06.116Z,12.45
2023-04-18T09:40:33.482Z,14.82
2023-04-18T09:43:00.766Z,14.75
2023-04-18T09:45:27.636Z,15.05
2023-04-18T09:47:55.947Z,16.15
2023-04-18T09:50:22.773Z,13.57
2023-04-18T09:52:49.602Z,14.68
2023-04-18T09:55:19.762Z,20.75
2023-04-18T09:57:48.537Z,25.08
2023-04-18T10:00:21.768Z,15.68
2023-04-18T10:02:58.828Z,17.55
2023-04-18T10:05:28.237Z,20.75
2023-04-18T10:07:55.434Z,22.25
2023-04-18T10:10:22.659Z,17.38
2023-04-18T10:12:51.056Z,16.00
2023-04-18T10:15:18.433Z,17.83
2023-04-18T10:18:03.656Z,18.55
2023-04-18T10:20:33.347Z,18.02
2023-04-18T10:23:00.254Z,15.40
2023-04-18T10:25:39.298Z,15.02
2023-04-18T10:28:09.655Z,14.48
2023-04-18T10:30:42.666Z,16.77
2023-04-18T10:36:01.287Z,14.75
2023-04-18T10:38:28.182Z,15.02
2023-04-18T10:41:14.085Z,13.45
2023-04-18T10:44:12.264Z,17.85
2023-04-18T10:46:48.512Z,14.63
2023-04-18T10:49:34.736Z,13.85
2023-04-18T10:52:03.062Z,17.27
2023-04-18T10:54:36.029Z,16.23
2023-04-18T10:57:04.351Z,14.50
2023-04-18T10:59:32.987Z,12.85
2023-04-18T11:02:05.367Z,13.35
2023-04-18T11:04:32.277Z,15.65
2023-04-18T11:06:59.207Z,17.63
2023-04-18T11:09:26.148Z,13.95
2023-04-18T11:12:06.700Z,18.40
2023-04-18T11:14:41.461Z,17.17
2023-04-18T11:17:22.469Z,16.88
2023-04-18T11:19:50.140Z,19.08
2023-04-18T11:22:17.804Z,15.35
2023-04-18T11:24:45.244Z,14.88
2023-04-18T11:27:12.898Z,15.43
2023-04-18T11:29:39.775Z,17.13
2023-04-18T11:32:08.081Z,16.75
2023-04-18T11:34:36.060Z,16.90
2023-04-18T11:37:07.038Z,14.52
2023-04-18T11:39:35.745Z,16.42
2023-04-18T11:42:02.509Z,16.92
2023-04-18T11:44:29.253Z,20.17
2023-04-18T11:46:56.074Z,18.38
2023-04-18T11:49:26.305Z,18.33
2023-04-18T11:51:53.825Z,17.58
2023-04-18T11:54:45.751Z,16.45
2023-04-18T11:57:23.243Z,19.10
2023-04-18T11:59:50.908Z,14.73
2023-04-18T12:02:17.992Z,19.05
2023-04-18T12:04:56.783Z,16.77
2023-04-18T12:07:48.332Z,19.13
2023-04-18T12:10:21.124Z,16.98
2023-04-18T12:12:51.772Z,17.70
2023-04-18T12:15:19.541Z,17.33
2023-04-18T12:17:48.728Z,16.98
2023-04-18T12:20:16.314Z,16.00
2023-04-18T12:22:46.392Z,15.18
2023-04-18T12:25:27.141Z,17.40
2023-04-18T12:27:58.257Z,17.33
2023-04-18T12:30:44.232Z,18.90
2023-04-18T12:33:11.317Z,14.77
2023-04-18T12:35:38.118Z,17.38
2023-04-18T12:38:05.144Z,19.73
2023-04-18T12:40:32.011Z,17.02
2023-04-18T12:42:59.282Z,16.30
2023-04-18T12:45:26.884Z,17.00
2023-04-18T12:47:53.959Z,19.67
2023-04-18T12:50:22.881Z,16.15
2023-04-18T12:52:52.251Z,17.40
2023-04-18T12:55:19.425Z,15.00
2023-04-18T12:57:46.490Z,20.17
2023-04-18T13:00:14.284Z,14.60
2023-04-18T13:02:43.871Z,12.95
2023-04-18T13:05:12.799Z,14.70
2023-04-18T13:07:40.923Z,14.10
2023-04-18T13:10:09.458Z,13.07
2023-04-18T13:12:36.733Z,15.07
2023-04-18T13:15:04.539Z,15.50
2023-04-18T13:17:31.550Z,13.05
2023-04-18T13:19:58.478Z,14.75
2023-04-18T13:22:25.736Z,14.30
2023-04-18T13:24:53.750Z,18.88
2023-04-18T13:27:20.582Z,15.02
2023-04-18T13:29:47.475Z,13.13
2023-04-18T13:32:14.334Z,12.68
2023-04-18T13:34:45.992Z,11.18
2023-04-18T13:37:13.723Z,16.15
2023-04-18T13:39:40.728Z,14.00
2023-04-18T13:42:08.009Z,14.45
2023-04-18T13:44:36.207Z,12.25
2023-04-18T13:47:05.719Z,11.75
2023-04-18T13:49:33.946Z,11.30
2023-04-18T13:52:01.141Z,11.52
2023-04-18T13:54:29.110Z,14.98
2023-04-18T13:56:57.882Z,15.90
2023-04-18T13:59:28.393Z,14.50
2023-04-18T14:01:55.757Z,12.25
2023-04-18T14:04:23.399Z,17.30
2023-04-18T14:06:50.879Z,14.43
2023-04-18T14:09:18.153Z,13.63
2023-04-18T14:11:45.454Z,15.00
2023-04-18T14:14:12.236Z,11.38
2023-04-18T14:16:39.041Z,13.43
2023-04-18T14:19:05.859Z,12.45
2023-04-18T14:21:32.643Z,12.95
2023-04-18T14:23:59.432Z,13.00
2023-04-18T14:26:26.208Z,11.23
2023-04-18T14:28:53.103Z,11.57
2023-04-18T14:31:20.187Z,11.85
2023-04-18T14:33:47.007Z,14.52
2023-04-18T14:36:17.077Z,10.88
2023-04-18T14:38:47.926Z,14.40
2023-04-18T14:41:14.928Z,14.57
2023-04-18T14:43:41.740Z,12.70
2023-04-18T14:46:16.838Z,7.68
2023-04-18T14:48:47.481Z,13.60
2023-04-18T14:51:17.682Z,15.35
2023-04-18T14:53:44.973Z,9.60
2023-04-18T14:56:12.000Z,7.85
2023-04-18T14:58:38.759Z,9.15
2023-04-18T15:01:05.636Z,7.20
2023-04-18T15:03:32.673Z,8.45
2023-04-18T15:05:59.763Z,6.35
2023-04-18T15:08:26.571Z,7.22
2023-04-18T15:10:54.272Z,9.23
2023-04-18T15:13:21.209Z,8.18
2023-04-18T15:15:55.350Z,8.43
2023-04-18T15:18:22.417Z,7.63
2023-04-18T15:20:49.297Z,7.75
2023-04-18T15:23:16.540Z,10.63
2023-04-18T15:25:44.629Z,10.40
2023-04-18T15:28:13.321Z,16.05
2023-04-18T15:30:40.290Z,10.30
2023-04-18T15:33:08.230Z,9.85
2023-04-18T15:35:36.146Z,5.53
2023-04-18T15:38:03.044Z,8.60
2023-04-18T15:40:30.149Z,6.88
2023-04-18T15:42:57.955Z,6.13
2023-04-18T15:45:24.843Z,6.13
2023-04-18T15:47:51.825Z,8.98
2023-04-18T15:50:18.717Z,15.93
2023-04-18T15:52:45.548Z,4.57
2023-04-18T15:55:13.544Z,4.68
2023-04-18T15:57:41.794Z,7.30
2023-04-18T16:00:16.384Z,3.83
2023-04-18T16:02:47.132Z,5.60
2023-04-18T16:07:42.437Z,5.40
2023-04-18T16:10:12.977Z,6.43
2023-04-18T16:12:39.992Z,6.25
2023-04-18T16:15:08.818Z,7.30
2023-04-18T16:17:36.713Z,5.88
2023-04-18T16:20:08.589Z,6.47
2023-04-18T16:22:36.351Z,4.93
2023-04-18T16:25:04.242Z,7.22
2023-04-18T16:27:31.026Z,5.72
2023-04-18T16:29:57.949Z,6.05
2023-04-18T16:32:25.251Z,11.40
2023-04-18T16:34:52.194Z,4.03
2023-04-18T16:37:19.098Z,5.78
2023-04-18T16:39:46.282Z,5.28
2023-04-18T16:42:15.865Z,5.63
2023-04-18T16:44:42.892Z,6.10
2023-04-18T16:47:09.843Z,5.40
2023-04-18T16:49:37.663Z,4.68
2023-04-18T16:52:04.618Z,6.88
2023-04-18T16:54:31.584Z,7.05
2023-04-18T16:56:58.516Z,6.72
2023-04-18T16:59:25.369Z,5.18
2023-04-18T17:01:52.491Z,6.28
2023-04-18T17:04:19.334Z,5.80
2023-04-18T17:06:46.811Z,6.60
2023-04-18T17:09:14.948Z,8.93
2023-04-18T17:11:41.958Z,7.22
2023-04-18T17:14:09.081Z,9.02
2023-04-18T17:16:38.749Z,6.50
2023-04-18T17:19:05.782Z,7.85
2023-04-18T17:21:33.963Z,9.90
2023-04-18T17:24:03.876Z,7.53
2023-04-18T17:26:31.159Z,8.37
2023-04-18T17:28:58.066Z,7.20
2023-04-18T17:31:24.929Z,7.65
2023-04-18T17:33:51.797Z,9.23
2023-04-18T17:36:18.654Z,5.72
2023-04-18T17:38:49.049Z,5.50
2023-04-18T17:41:20.328Z,6.88
2023-04-18T17:43:48.206Z,11.43
2023-04-18T17:46:15.101Z,8.27
2023-04-18T17:48:42.018Z,8.80
2023-04-18T17:51:08.815Z,5.22
2023-04-18T17:53:35.641Z,7.18
2023-04-18T17:56:03.901Z,9.05
2023-04-18T17:58:30.817Z,7.35
2023-04-18T18:00:57.729Z,5.35
2023-04-18T18:03:24.761Z,7.55
2023-04-18T18:05:52.037Z,4.88
2023-04-18T18:08:19.308Z,6.43
2023-04-18T18:10:47.338Z,8.18
2023-04-18T18:13:14.117Z,7.07
2023-04-18T18:15:40.918Z,7.22
2023-04-18T18:18:07.842Z,6.55
2023-04-18T18:20:34.779Z,12.93
2023-04-18T18:23:02.067Z,6.63
2023-04-18T18:25:29.318Z,6.22
2023-04-18T18:27:56.171Z,6.80
2023-04-18T18:30:23.001Z,5.75
2023-04-18T18:32:49.840Z,7.57
2023-04-18T18:35:16.831Z,6.32
2023-04-18T18:37:43.662Z,10.43
2023-04-18T18:40:11.015Z,5.93
2023-04-18T18:42:37.880Z,6.72
2023-04-18T18:45:05.393Z,7.28
2023-04-18T18:47:32.375Z,6.75
2023-04-18T18:49:59.160Z,8.40
2023-04-18T18:52:28.260Z,8.70
2023-04-18T18:54:55.510Z,12.27
2023-04-18T18:57:22.667Z,58.05
2023-04-18T18:59:53.836Z,8.77
2023-04-18T19:02:22.134Z,7.50
2023-04-18T19:04:49.255Z,16.30
2023-04-18T19:07:16.177Z,6.85
2023-04-18T19:09:43.383Z,10.55
2023-04-18T19:12:10.232Z,7.85
2023-04-18T19:14:37.061Z,7.28
2023-04-18T19:17:05.076Z,8.98
2023-04-18T19:19:31.909Z,11.57
2023-04-18T19:22:01.261Z,7.88
2023-04-18T19:24:28.056Z,7.60
2023-04-18T19:26:54.883Z,10.25
2023-04-18T19:29:22.426Z,11.50
2023-04-18T19:31:49.282Z,15.13
2023-04-18T19:34:19.019Z,12.45
2023-04-18T19:36:46.038Z,13.30
2023-04-18T19:39:13.116Z,13.02
2023-04-18T19:41:41.716Z,17.95
2023-04-18T19:44:08.462Z,11.07
2023-04-18T19:46:35.466Z,13.43
2023-04-18T19:49:02.438Z,9.52
2023-04-18T19:51:29.296Z,9.52
2023-04-18T19:53:56.209Z,13.95
2023-04-18T19:56:23.239Z,7.97
2023-04-18T19:58:50.056Z,7.47
2023-04-18T20:01:19.345Z,11.23
2023-04-18T20:03:47.326Z,8.85
2023-04-18T20:06:14.407Z,8.35
2023-04-18T20:08:45.891Z,10.18
2023-04-18T20:11:16.360Z,8.93
2023-04-18T20:13:43.255Z,9.63
2023-04-18T20:16:11.162Z,9.13
2023-04-18T20:18:39.557Z,10.38
2023-04-18T20:21:07.919Z,8.32
2023-04-18T20:23:35.667Z,8.88
2023-04-18T20:26:03.729Z,11.57
2023-04-18T20:28:31.529Z,8.35
2023-04-18T20:30:58.369Z,8.50
2023-04-18T20:33:25.298Z,8.00
2023-04-18T20:35:53.813Z,8.18
2023-04-18T20:38:25.809Z,11.43
2023-04-18T20:40:54.366Z,10.77
2023-04-18T20:43:21.577Z,9.10
2023-04-18T20:45:51.240Z,9.70
2023-04-18T20:48:18.331Z,12.13
2023-04-18T20:50:51.134Z,12.38
2023-04-18T20:53:21.821Z,10.93
2023-04-18T20:55:49.311Z,8.50
2023-04-18T20:58:16.354Z,9.55
2023-04-18T21:00:44.681Z,11.45
2023-04-18T21:03:15.673Z,9.85
2023-04-18T21:05:44.326Z,10.68
2023-04-18T21:08:11.619Z,12.40
2023-04-18T21:10:38.497Z,11.40
2023-04-18T21:13:05.756Z,10.05
2023-04-18T21:15:32.547Z,9.48
2023-04-18T21:17:59.453Z,11.50
2023-04-18T21:20:26.403Z,10.30
2023-04-18T21:22:53.195Z,14.60
2023-04-18T21:25:21.460Z,11.30
2023-04-18T21:27:50.746Z,13.30
2023-04-18T21:30:17.799Z,10.07
2023-04-18T21:32:46.087Z,14.45
2023-04-18T21:35:13.104Z,12.48
2023-04-18T21:37:39.920Z,15.13
2023-04-18T21:40:07.550Z,16.77
2023-04-18T21:42:35.795Z,17.17
2023-04-18T21:45:03.054Z,14.13
2023-04-18T21:47:30.111Z,11.68
2023-04-18T21:49:56.955Z,17.15
2023-04-18T21:52:23.814Z,13.02
2023-04-18T21:54:50.791Z,13.45
2023-04-18T21:57:17.588Z,10.93
2023-04-18T21:59:44.429Z,10.00
2023-04-18T22:02:11.525Z,7.60
2023-04-18T22:04:42.926Z,13.85
2023-04-18T22:07:10.243Z,10.15
2023-04-18T22:09:37.308Z,8.93
2023-04-18T22:12:04.534Z,14.20
2023-04-18T22:14:34.270Z,8.85
2023-04-18T22:17:03.360Z,10.38
2023-04-18T22:19:31.521Z,11.80
2023-04-18T22:21:58.595Z,7.82
2023-04-18T22:24:26.202Z,7.63
2023-04-18T22:26:53.775Z,6.18
2023-04-18T22:29:20.573Z,8.75
2023-04-18T22:31:47.381Z,6.97
2023-04-18T22:34:14.507Z,7.93
2023-04-18T22:36:42.914Z,9.13
2023-04-18T22:39:09.895Z,8.77
2023-04-18T22:41:36.701Z,9.18
2023-04-18T22:44:06.153Z,10.43
2023-04-18T22:46:33.139Z,8.82
2023-04-18T22:48:59.977Z,8.55
2023-04-18T22:51:28.837Z,8.25
2023-04-18T22:53:56.547Z,11.82
2023-04-18T22:56:23.530Z,8.20
2023-04-18T22:58:50.316Z,7.45
2023-04-18T23:01:17.234Z,9.20
2023-04-18T23:03:44.504Z,12.77
2023-04-18T23:06:11.524Z,9.20
2023-04-18T23:08:38.374Z,8.05
2023-04-18T23:11:05.306Z,6.38
2023-04-18T23:13:32.132Z,7.82
2023-04-18T23:15:59.106Z,6.88
2023-04-18T23:18:29.032Z,9.07
2023-04-18T23:20:55.898Z,8.83
2023-04-18T23:23:22.666Z,8.30
2023-04-18T23:25:49.418Z,7.88
2023-04-18T23:28:17.250Z,6.53
2023-04-18T23:30:44.191Z,8.40
2023-04-18T23:33:11.132Z,10.73
2023-04-18T23:35:37.967Z,8.18
2023-04-18T23:38:04.801Z,8.07
2023-04-18T23:40:31.631Z,8.85
2023-04-18T23:42:59.174Z,6.32
2023-04-18T23:45:29.029Z,8.95
2023-04-18T23:47:56.020Z,7.45
2023-04-18T23:50:22.845Z,11.15
2023-04-18T23:52:49.607Z,7.13
2023-04-18T23:55:16.966Z,5.15
2023-04-18T23:57:44.558Z,10.48
